createdAt,value
2022-09-10T00:02:14.217Z,20.84
2022-09-10T00:04:44.198Z,20.79
2022-09-10T00:07:14.238Z,20.92
2022-09-10T00:09:44.653Z,20.81
2022-09-10T00:12:16.170Z,20.94
2022-09-10T00:14:46.744Z,20.94
2022-09-10T00:17:16.616Z,20.92
2022-09-10T00:19:48.353Z,20.85
2022-09-10T00:22:18.293Z,20.64
2022-09-10T00:24:48.719Z,20.61
2022-09-10T00:27:18.725Z,20.55
2022-09-10T00:29:48.715Z,20.43
2022-09-10T00:32:18.653Z,20.20
2022-09-10T00:34:49.742Z,20.13
2022-09-10T00:37:20.428Z,20.10
2022-09-10T00:39:50.946Z,19.96
2022-09-10T00:42:21.186Z,19.98
2022-09-10T00:45:00.820Z,19.69
2022-09-10T00:47:37.542Z,19.67
2022-09-10T00:50:35.902Z,19.58
2022-09-10T00:53:14.024Z,19.65
2022-09-10T00:55:48.155Z,19.55
2022-09-10T00:58:22.110Z,19.29
2022-09-10T01:00:56.492Z,19.22
2022-09-10T01:03:27.100Z,18.97
2022-09-10T01:05:59.382Z,18.76
2022-09-10T01:08:30.167Z,18.67
2022-09-10T01:11:21.791Z,18.60
2022-09-10T01:14:14.043Z,18.60
2022-09-10T01:16:50.510Z,18.59
2022-09-10T01:19:57.900Z,18.59
2022-09-10T01:22:34.163Z,18.46
2022-09-10T01:25:07.253Z,18.49
2022-09-10T01:27:40.530Z,18.30
2022-09-10T01:30:15.986Z,18.25
2022-09-10T01:32:58.116Z,18.06
2022-09-10T01:35:43.549Z,17.89
2022-09-10T01:38:22.473Z,17.74
2022-09-10T01:40:57.281Z,17.66
2022-09-10T01:43:31.412Z,17.43
2022-09-10T01:46:26.843Z,17.50
2022-09-10T01:49:05.703Z,17.39
2022-09-10T01:52:04.253Z,17.19
2022-09-10T01:54:38.734Z,16.80
2022-09-10T01:57:21.750Z,16.76
2022-09-10T02:00:03.116Z,16.78
2022-09-10T02:02:54.001Z,16.98
2022-09-10T02:05:25.648Z,16.80
2022-09-10T02:08:06.676Z,16.78
2022-09-10T02:10:48.682Z,17.02
2022-09-10T02:13:19.306Z,16.73
2022-09-10T02:16:14.184Z,16.62
2022-09-10T02:18:47.095Z,16.72
2022-09-10T02:21:17.961Z,16.69
2022-09-10T02:23:55.238Z,16.58
2022-09-10T02:26:28.023Z,16.44
2022-09-10T02:28:59.244Z,16.41
2022-09-10T02:31:29.939Z,16.61
2022-09-10T02:34:00.516Z,16.42
2022-09-10T02:36:33.081Z,16.32
2022-09-10T02:39:05.541Z,16.25
2022-09-10T02:41:36.485Z,16.14
2022-09-10T02:44:06.906Z,16.10
2022-09-10T02:46:37.146Z,16.24
2022-09-10T02:49:07.769Z,16.24
2022-09-10T02:51:41.547Z,16.03
2022-09-10T02:54:11.783Z,15.99
2022-09-10T02:56:41.623Z,15.96
2022-09-10T02:59:11.619Z,15.87
2022-09-10T03:01:41.958Z,15.96
2022-09-10T03:04:12.224Z,15.94
2022-09-10T03:06:42.474Z,16.04
2022-09-10T03:09:12.615Z,16.22
2022-09-10T03:11:43.015Z,16.17
2022-09-10T03:14:15.233Z,15.99
2022-09-10T03:16:48.496Z,15.76
2022-09-10T03:19:19.187Z,15.56
2022-09-10T03:21:49.314Z,15.76
2022-09-10T03:24:19.386Z,15.83
2022-09-10T03:26:49.385Z,15.85
2022-09-10T03:29:19.410Z,15.90
2022-09-10T03:31:49.682Z,15.60
2022-09-10T03:34:20.382Z,15.58
2022-09-10T03:36:51.091Z,15.49
2022-09-10T03:39:22.307Z,15.49
2022-09-10T03:41:54.827Z,15.53
2022-09-10T03:44:25.103Z,15.76
2022-09-10T03:46:54.940Z,15.70
2022-09-10T03:49:24.946Z,15.72
2022-09-10T03:51:55.688Z,15.65
2022-09-10T03:54:26.943Z,15.85
2022-09-10T03:56:56.991Z,15.96
2022-09-10T03:59:27.723Z,16.06
2022-09-10T04:02:01.710Z,16.14
2022-09-10T04:04:33.214Z,15.91
2022-09-10T04:07:03.302Z,15.83
2022-09-10T04:09:35.248Z,15.69
2022-09-10T04:12:06.324Z,15.78
2022-09-10T04:14:37.986Z,15.67
2022-09-10T04:17:08.311Z,15.45
2022-09-10T04:19:39.395Z,15.39
2022-09-10T04:22:09.733Z,15.39
2022-09-10T04:24:41.369Z,15.28
2022-09-10T04:27:11.557Z,15.38
2022-09-10T04:29:44.258Z,15.20
2022-09-10T04:32:15.987Z,15.14
2022-09-10T04:34:47.091Z,15.45
2022-09-10T04:37:19.298Z,15.43
2022-09-10T04:39:50.531Z,15.32
2022-09-10T04:42:21.686Z,15.43
2022-09-10T04:44:53.746Z,15.25
2022-09-10T04:47:25.475Z,15.28
2022-09-10T04:49:55.987Z,15.18
2022-09-10T04:52:26.694Z,15.18
2022-09-10T04:54:57.540Z,15.27
2022-09-10T04:57:30.238Z,15.20
2022-09-10T05:00:00.481Z,15.25
2022-09-10T05:02:30.530Z,15.25
2022-09-10T05:05:01.081Z,15.21
2022-09-10T05:07:32.134Z,15.31
2022-09-10T05:10:04.310Z,15.29
2022-09-10T05:12:34.399Z,15.39
2022-09-10T05:15:05.905Z,15.43
2022-09-10T05:17:36.744Z,15.55
2022-09-10T05:20:08.893Z,15.53
2022-09-10T05:22:44.093Z,15.34
2022-09-10T05:25:15.796Z,15.24
2022-09-10T05:27:46.117Z,15.11
2022-09-10T05:30:21.128Z,15.02
2022-09-10T05:32:54.431Z,14.80
2022-09-10T05:35:25.234Z,14.98
2022-09-10T05:37:58.674Z,14.79
2022-09-10T05:40:30.364Z,14.67
2022-09-10T05:43:01.565Z,14.55
2022-09-10T05:45:32.497Z,14.43
2022-09-10T05:48:05.626Z,14.29
2022-09-10T05:50:35.719Z,14.21
2022-09-10T05:53:06.560Z,14.01
2022-09-10T05:55:36.799Z,14.05
2022-09-10T05:58:09.293Z,14.04
2022-09-10T06:00:44.595Z,14.09
2022-09-10T06:03:16.101Z,14.12
2022-09-10T06:05:54.233Z,14.12
2022-09-10T06:08:28.177Z,14.23
2022-09-10T06:11:07.086Z,14.18
2022-09-10T06:13:45.144Z,14.01
2022-09-10T06:16:16.509Z,14.01
2022-09-10T06:18:47.846Z,13.89
2022-09-10T06:21:24.975Z,13.77
2022-09-10T06:23:58.889Z,13.65
2022-09-10T06:26:32.278Z,13.61
2022-09-10T06:29:07.573Z,13.61
2022-09-10T06:31:38.246Z,13.54
2022-09-10T06:34:09.320Z,13.47
2022-09-10T06:36:40.410Z,13.43
2022-09-10T06:39:11.296Z,13.57
2022-09-10T06:41:54.858Z,13.55
2022-09-10T06:44:43.059Z,13.55
2022-09-10T06:48:25.374Z,13.48
2022-09-10T06:50:37.037Z,13.51
2022-09-10T06:53:07.480Z,13.33
2022-09-10T06:55:37.549Z,13.28
2022-09-10T06:58:08.470Z,13.30
2022-09-10T07:00:41.053Z,13.26
2022-09-10T07:03:11.699Z,13.28
2022-09-10T07:05:42.322Z,13.26
2022-09-10T07:08:17.144Z,13.30
2022-09-10T07:10:53.024Z,13.44
2022-09-10T07:13:24.388Z,13.43
2022-09-10T07:15:54.804Z,13.44
2022-09-10T07:18:25.796Z,13.44
2022-09-10T07:20:56.283Z,13.50
2022-09-10T07:23:26.213Z,13.43
2022-09-10T07:25:56.256Z,13.34
2022-09-10T07:28:43.580Z,13.43
2022-09-10T07:31:24.875Z,13.41
2022-09-10T07:33:56.531Z,13.39
2022-09-10T07:36:27.259Z,13.24
2022-09-10T07:39:02.718Z,13.24
2022-09-10T07:41:36.604Z,13.28
2022-09-10T07:44:10.436Z,13.23
2022-09-10T07:46:45.131Z,13.06
2022-09-10T07:49:17.836Z,12.97
2022-09-10T07:51:59.674Z,12.91
2022-09-10T07:54:40.088Z,12.83
2022-09-10T07:57:10.638Z,12.75
2022-09-10T07:59:40.524Z,12.73
2022-09-10T08:02:16.565Z,12.93
2022-09-10T08:04:55.642Z,13.19
2022-09-10T08:07:26.107Z,13.23
2022-09-10T08:09:56.363Z,13.12
2022-09-10T08:12:27.618Z,12.91
2022-09-10T08:14:58.998Z,12.85
2022-09-10T08:17:33.367Z,12.83
2022-09-10T08:20:06.004Z,12.81
2022-09-10T08:22:37.377Z,12.76
2022-09-10T08:25:08.700Z,12.79
2022-09-10T08:27:40.155Z,12.81
2022-09-10T08:30:11.678Z,12.71
2022-09-10T08:32:42.236Z,12.72
2022-09-10T08:35:13.127Z,12.69
2022-09-10T08:37:44.948Z,12.76
2022-09-10T08:40:17.756Z,12.75
2022-09-10T08:42:51.483Z,12.69
2022-09-10T08:45:34.012Z,12.69
2022-09-10T08:48:25.036Z,12.65
2022-09-10T08:51:11.896Z,12.66
2022-09-10T08:53:46.920Z,12.59
2022-09-10T08:56:21.542Z,12.51
2022-09-10T08:59:00.270Z,12.51
2022-09-10T09:01:41.663Z,12.45
2022-09-10T09:04:43.702Z,12.55
2022-09-10T09:07:18.176Z,12.59
2022-09-10T09:09:53.237Z,12.55
2022-09-10T09:12:35.634Z,12.30
2022-09-10T09:15:28.530Z,12.23
2022-09-10T09:18:32.178Z,12.25
2022-09-10T09:21:14.617Z,12.28
2022-09-10T09:24:12.602Z,12.11
2022-09-10T09:26:51.444Z,11.95
2022-09-10T09:29:44.869Z,11.79
2022-09-10T09:32:19.602Z,11.61
2022-09-10T09:35:11.563Z,11.49
2022-09-10T09:37:49.410Z,11.46
2022-09-10T09:40:44.694Z,11.55
2022-09-10T09:43:58.198Z,11.47
2022-09-10T09:46:29.668Z,11.45
2022-09-10T09:49:04.286Z,11.45
2022-09-10T09:51:37.992Z,11.49
2022-09-10T09:57:18.235Z,11.59
2022-09-10T09:59:50.429Z,11.49
2022-09-10T10:02:31.575Z,11.52
2022-09-10T10:05:08.549Z,11.47
2022-09-10T10:07:39.235Z,11.47
2022-09-10T10:10:22.457Z,11.52
2022-09-10T10:12:54.896Z,11.45
2022-09-10T10:15:43.039Z,11.42
2022-09-10T10:18:33.649Z,11.34
2022-09-10T10:21:32.691Z,11.40
2022-09-10T10:24:03.283Z,11.36
2022-09-10T10:26:35.978Z,11.32
2022-09-10T10:29:20.078Z,11.29
2022-09-10T10:31:52.591Z,11.32
2022-09-10T10:34:55.089Z,11.35
2022-09-10T10:37:43.726Z,11.34
2022-09-10T10:40:28.256Z,11.35
2022-09-10T10:43:16.388Z,11.25
2022-09-10T10:45:55.562Z,11.29
2022-09-10T10:48:31.024Z,11.36
2022-09-10T10:51:16.269Z,11.36
2022-09-10T10:53:49.961Z,11.35
2022-09-10T10:56:43.982Z,11.29
2022-09-10T10:59:32.430Z,11.34
2022-09-10T11:02:23.960Z,11.43
2022-09-10T11:04:56.905Z,11.39
2022-09-10T11:07:41.347Z,11.35
2022-09-10T11:10:20.885Z,11.32
2022-09-10T11:13:07.262Z,11.43
2022-09-10T11:15:42.731Z,11.46
2022-09-10T11:18:35.191Z,11.40
2022-09-10T11:21:09.817Z,11.51
2022-09-10T11:24:02.611Z,11.52
2022-09-10T11:26:41.468Z,11.49
2022-09-10T11:29:26.582Z,11.25
2022-09-10T11:31:56.578Z,11.32
2022-09-10T11:34:59.083Z,11.29
2022-09-10T11:37:49.913Z,11.36
2022-09-10T11:40:34.439Z,11.39
2022-09-10T11:43:16.195Z,11.45
2022-09-10T11:45:54.474Z,11.52
2022-09-10T11:48:33.409Z,11.51
2022-09-10T11:51:09.891Z,11.61
2022-09-10T11:53:40.125Z,11.87
2022-09-10T11:56:15.337Z,11.87
2022-09-10T11:59:12.847Z,11.93
2022-09-10T12:01:50.461Z,11.83
2022-09-10T12:04:43.673Z,11.59
2022-09-10T12:07:38.008Z,11.74
2022-09-10T12:10:38.218Z,11.63
2022-09-10T12:13:16.389Z,11.86
2022-09-10T12:16:01.363Z,11.77
2022-09-10T12:18:43.006Z,12.20
2022-09-10T12:21:43.069Z,12.16
2022-09-10T12:24:37.338Z,12.20
2022-09-10T12:27:08.992Z,12.58
2022-09-10T12:29:43.784Z,12.73
2022-09-10T12:32:23.542Z,12.46
2022-09-10T12:35:33.395Z,12.23
2022-09-10T12:38:43.353Z,12.44
2022-09-10T12:41:34.597Z,12.65
2022-09-10T12:44:26.148Z,13.13
2022-09-10T12:47:14.776Z,13.81
2022-09-10T12:49:54.474Z,13.81
2022-09-10T12:52:54.607Z,13.88
2022-09-10T12:55:52.073Z,13.64
2022-09-10T12:58:34.976Z,13.51
2022-09-10T13:01:37.073Z,13.85
2022-09-10T13:04:17.587Z,14.33
2022-09-10T13:06:51.220Z,14.44
2022-09-10T13:09:41.498Z,14.21
2022-09-10T13:12:25.111Z,14.33
2022-09-10T13:14:59.199Z,14.19
2022-09-10T13:18:01.134Z,14.33
2022-09-10T13:20:34.062Z,14.52
2022-09-10T13:23:10.742Z,14.69
2022-09-10T13:25:44.214Z,14.47
2022-09-10T13:28:34.048Z,14.16
2022-09-10T13:31:19.568Z,14.64
2022-09-10T13:33:55.688Z,14.87
2022-09-10T13:36:34.480Z,14.85
2022-09-10T13:39:41.152Z,15.53
2022-09-10T13:42:26.158Z,15.72
2022-09-10T13:45:14.986Z,15.39
2022-09-10T13:48:04.454Z,15.15
2022-09-10T13:50:47.186Z,15.96
2022-09-10T13:53:19.830Z,16.72
2022-09-10T13:55:59.965Z,17.54
2022-09-10T13:58:36.532Z,17.43
2022-09-10T14:01:07.352Z,16.44
2022-09-10T14:03:40.153Z,15.69
2022-09-10T14:06:26.415Z,17.06
2022-09-10T14:09:03.247Z,17.95
2022-09-10T14:11:36.955Z,16.80
2022-09-10T14:14:18.817Z,17.43
2022-09-10T14:16:59.624Z,17.66
2022-09-10T14:19:56.648Z,18.25
2022-09-10T14:22:27.653Z,18.30
2022-09-10T14:25:02.676Z,17.71
2022-09-10T14:27:36.063Z,17.34
2022-09-10T14:30:28.192Z,16.92
2022-09-10T14:33:33.234Z,17.20
2022-09-10T14:36:35.610Z,16.72
2022-09-10T14:39:18.567Z,16.55
2022-09-10T14:41:50.304Z,16.49
2022-09-10T14:44:26.931Z,16.40
2022-09-10T14:47:14.001Z,17.54
2022-09-10T14:49:48.186Z,18.50
2022-09-10T14:52:19.095Z,19.66
2022-09-10T14:54:49.970Z,19.96
2022-09-10T14:57:20.905Z,19.80
2022-09-10T14:59:55.287Z,18.55
2022-09-10T15:02:30.150Z,19.00
2022-09-10T15:05:00.635Z,19.28
2022-09-10T15:07:31.235Z,19.34
2022-09-10T15:10:02.962Z,19.62
2022-09-10T15:12:34.406Z,19.76
2022-09-10T15:15:05.915Z,19.19
2022-09-10T15:17:36.894Z,19.56
2022-09-10T15:20:07.498Z,18.97
2022-09-10T15:22:37.448Z,18.76
2022-09-10T15:25:10.885Z,19.17
2022-09-10T15:27:42.995Z,19.42
2022-09-10T15:30:13.287Z,19.69
2022-09-10T15:32:44.036Z,19.94
2022-09-10T15:35:14.388Z,19.79
2022-09-10T15:37:44.574Z,20.16
2022-09-10T15:40:14.564Z,20.01
2022-09-10T15:42:44.544Z,20.38
2022-09-10T15:45:14.466Z,20.16
2022-09-10T15:47:44.460Z,19.96
2022-09-10T15:50:17.054Z,20.45
2022-09-10T15:52:47.646Z,20.38
2022-09-10T15:55:17.953Z,20.12
2022-09-10T15:57:51.347Z,20.18
2022-09-10T16:00:22.258Z,20.45
2022-09-10T16:02:55.049Z,20.44
2022-09-10T16:05:25.144Z,20.71
2022-09-10T16:07:55.021Z,20.89
2022-09-10T16:10:25.724Z,21.40
2022-09-10T16:12:56.058Z,21.32
2022-09-10T16:15:26.186Z,21.13
2022-09-10T16:17:55.991Z,22.35
2022-09-10T16:20:25.944Z,21.67
2022-09-10T16:22:55.860Z,21.20
2022-09-10T16:25:26.060Z,22.42
2022-09-10T16:27:55.908Z,21.70
2022-09-10T16:30:26.785Z,21.67
2022-09-10T16:32:56.795Z,21.39
2022-09-10T16:35:27.637Z,21.36
2022-09-10T16:37:58.283Z,21.78
2022-09-10T16:40:28.671Z,21.56
2022-09-10T16:42:58.609Z,21.36
2022-09-10T16:45:28.537Z,21.64
2022-09-10T16:48:04.132Z,22.21
2022-09-10T16:50:35.013Z,21.83
2022-09-10T16:53:08.974Z,21.70
2022-09-10T16:55:41.844Z,21.98
2022-09-10T16:58:12.116Z,21.70
2022-09-10T17:00:44.804Z,22.15
2022-09-10T17:03:16.489Z,22.52
2022-09-10T17:05:48.084Z,22.63
2022-09-10T17:08:18.233Z,22.08
2022-09-10T17:10:48.638Z,22.51
2022-09-10T17:13:19.013Z,22.57
2022-09-10T17:15:50.989Z,22.59
2022-09-10T17:18:21.133Z,22.66
2022-09-10T17:20:54.106Z,22.56
2022-09-10T17:23:24.605Z,22.52
2022-09-10T17:25:54.923Z,22.57
2022-09-10T17:28:24.829Z,23.04
2022-09-10T17:30:57.768Z,22.41
2022-09-10T17:33:29.449Z,23.65
2022-09-10T17:36:02.676Z,24.12
2022-09-10T17:38:35.328Z,23.89
2022-09-10T17:41:06.354Z,23.75
2022-09-10T17:43:39.066Z,22.93
2022-09-10T17:46:12.771Z,22.59
2022-09-10T17:48:46.999Z,22.32
2022-09-10T17:51:20.938Z,21.90
2022-09-10T17:53:52.366Z,21.78
2022-09-10T17:56:24.407Z,22.05
2022-09-10T17:59:02.824Z,22.21
2022-09-10T18:01:37.383Z,21.87
2022-09-10T18:04:15.549Z,22.53
2022-09-10T18:06:50.167Z,23.21
2022-09-10T18:09:23.226Z,22.83
2022-09-10T18:11:53.707Z,22.29
2022-09-10T18:14:25.575Z,22.12
2022-09-10T18:16:57.044Z,21.91
2022-09-10T18:19:27.393Z,21.98
2022-09-10T18:21:57.364Z,22.15
2022-09-10T18:24:27.989Z,22.26
2022-09-10T18:26:59.073Z,22.93
2022-09-10T18:29:31.336Z,22.24
2022-09-10T18:32:03.018Z,21.78
2022-09-10T18:34:33.742Z,21.71
2022-09-10T18:37:05.055Z,21.46
2022-09-10T18:39:35.842Z,21.70
2022-09-10T18:42:07.461Z,21.63
2022-09-10T18:44:38.210Z,21.51
2022-09-10T18:47:28.055Z,21.87
2022-09-10T18:50:01.230Z,22.04
2022-09-10T18:52:31.579Z,22.72
2022-09-10T18:55:02.249Z,22.26
2022-09-10T18:57:33.002Z,21.73
2022-09-10T19:00:03.220Z,21.57
2022-09-10T19:02:33.163Z,21.77
2022-09-10T19:05:12.047Z,21.58
2022-09-10T19:07:43.329Z,21.18
2022-09-10T19:10:13.765Z,21.58
2022-09-10T19:12:43.793Z,21.09
2022-09-10T19:15:13.853Z,20.76
2022-09-10T19:17:44.140Z,21.00
2022-09-10T19:20:14.028Z,20.75
2022-09-10T19:22:45.716Z,20.68
2022-09-10T19:25:15.866Z,20.74
2022-09-10T19:27:46.848Z,20.89
2022-09-10T19:30:17.233Z,20.41
2022-09-10T19:32:47.635Z,20.35
2022-09-10T19:35:18.071Z,20.38
2022-09-10T19:37:49.551Z,19.80
2022-09-10T19:40:19.958Z,19.54
2022-09-10T19:42:50.680Z,19.72
2022-09-10T19:45:20.584Z,20.06
2022-09-10T19:47:50.508Z,20.27
2022-09-10T19:50:23.280Z,19.32
2022-09-10T19:52:54.939Z,18.96
2022-09-10T19:55:28.169Z,19.07
2022-09-10T19:58:00.541Z,19.22
2022-09-10T20:00:46.482Z,18.94
2022-09-10T20:03:18.199Z,18.49
2022-09-10T20:05:49.697Z,18.21
2022-09-10T20:08:19.862Z,18.09
2022-09-10T20:10:55.114Z,18.26
2022-09-10T20:13:26.230Z,18.49
2022-09-10T20:15:56.935Z,18.64
2022-09-10T20:18:31.481Z,18.45
2022-09-10T20:21:21.103Z,17.98
2022-09-10T20:23:54.607Z,17.84
2022-09-10T20:26:28.759Z,17.74
2022-09-10T20:29:05.063Z,17.68
2022-09-10T20:31:37.273Z,17.37
2022-09-10T20:34:09.278Z,17.39
2022-09-10T20:36:42.034Z,17.50
2022-09-10T20:39:14.985Z,17.39
2022-09-10T20:41:46.054Z,17.24
2022-09-10T20:44:18.609Z,17.15
2022-09-10T20:46:49.331Z,17.00
2022-09-10T20:49:19.514Z,16.76
2022-09-10T20:51:49.803Z,16.75
2022-09-10T20:54:20.573Z,16.73
2022-09-10T20:56:51.304Z,16.68
2022-09-10T20:59:25.553Z,16.75
2022-09-10T21:01:57.865Z,16.61
2022-09-10T21:04:28.257Z,16.49
2022-09-10T21:06:59.575Z,16.34
2022-09-10T21:09:30.016Z,16.30
2022-09-10T21:12:00.263Z,16.17
2022-09-10T21:14:30.172Z,16.06
2022-09-10T21:17:00.797Z,15.96
2022-09-10T21:19:31.997Z,15.97
2022-09-10T21:22:04.027Z,15.94
2022-09-10T21:24:34.189Z,15.80
2022-09-10T21:27:05.027Z,15.72
2022-09-10T21:29:35.053Z,15.66
2022-09-10T21:32:06.391Z,15.60
2022-09-10T21:34:36.934Z,15.56
2022-09-10T21:37:07.700Z,15.55
2022-09-10T21:39:37.721Z,15.50
2022-09-10T21:42:07.897Z,15.36
2022-09-10T21:44:37.918Z,15.24
2022-09-10T21:47:08.187Z,15.11
2022-09-10T21:49:38.356Z,15.05
2022-09-10T21:52:10.437Z,14.97
2022-09-10T21:54:40.570Z,14.85
2022-09-10T21:57:12.735Z,14.74
2022-09-10T21:59:43.065Z,14.57
2022-09-10T22:02:13.390Z,14.56
2022-09-10T22:04:44.224Z,14.39
2022-09-10T22:07:15.386Z,14.28
2022-09-10T22:09:46.057Z,14.25
2022-09-10T22:12:16.700Z,14.16
2022-09-10T22:14:46.642Z,14.04
2022-09-10T22:17:16.627Z,13.99
2022-09-10T22:19:46.543Z,13.89
2022-09-10T22:22:16.988Z,14.04
2022-09-10T22:24:47.381Z,13.72
2022-09-10T22:27:17.925Z,13.55
2022-09-10T22:29:48.452Z,13.51
2022-09-10T22:32:18.810Z,13.57
2022-09-10T22:34:50.192Z,13.44
2022-09-10T22:37:20.445Z,13.36
2022-09-10T22:39:50.467Z,13.34
2022-09-10T22:42:22.303Z,13.40
2022-09-10T22:44:53.212Z,13.39
2022-09-10T22:47:23.335Z,13.16
2022-09-10T22:49:53.489Z,13.24
2022-09-10T22:52:23.872Z,13.10
2022-09-10T22:54:54.650Z,13.00
2022-09-10T22:57:24.547Z,12.92
2022-09-10T22:59:55.407Z,12.82
2022-09-10T23:02:26.010Z,12.76
2022-09-10T23:04:56.553Z,12.75
2022-09-10T23:07:27.129Z,12.59
2022-09-10T23:09:57.395Z,12.55
2022-09-10T23:12:27.763Z,12.55
2022-09-10T23:14:58.396Z,12.46
2022-09-10T23:17:28.352Z,12.34
2022-09-10T23:19:58.339Z,12.25
2022-09-10T23:22:28.260Z,12.28
2022-09-10T23:24:59.490Z,12.46
2022-09-10T23:27:30.162Z,12.38
2022-09-10T23:30:00.294Z,12.25
2022-09-10T23:32:30.762Z,12.17
2022-09-10T23:35:01.675Z,12.13
2022-09-10T23:37:31.824Z,12.05
2022-09-10T23:40:01.930Z,11.97
2022-09-10T23:42:32.445Z,11.89
2022-09-10T23:45:03.289Z,11.84
2022-09-10T23:47:33.805Z,11.82
2022-09-10T23:50:04.346Z,11.90
2022-09-10T23:52:34.332Z,11.80
2022-09-10T23:55:04.194Z,11.70
2022-09-10T23:57:35.214Z,11.63
